createdAt,value
2018-11-07T00:02:11.149Z,80.43
2018-11-07T00:04:39.440Z,75.73
2018-11-07T00:07:08.065Z,76.00
2018-11-07T00:09:36.022Z,82.90
2018-11-07T00:12:03.993Z,81.50
2018-11-07T00:14:31.959Z,82.17
2018-11-07T00:16:59.895Z,81.93
2018-11-07T00:19:28.780Z,77.07
2018-11-07T00:21:56.646Z,79.60
2018-11-07T00:24:25.133Z,82.27
2018-11-07T00:26:57.995Z,82.40
2018-11-07T00:29:26.188Z,82.77
2018-11-07T00:31:55.438Z,77.20
2018-11-07T00:34:23.341Z,88.60
2018-11-07T00:36:58.363Z,80.13
2018-11-07T00:39:27.339Z,86.63
2018-11-07T00:41:56.177Z,79.70
2018-11-07T00:44:24.823Z,83.63
2018-11-07T00:46:53.194Z,87.33
2018-11-07T00:49:21.054Z,83.43
2018-11-07T00:51:48.948Z,78.93
2018-11-07T00:54:20.353Z,83.20
2018-11-07T00:56:52.785Z,91.40
2018-11-07T00:59:22.791Z,82.70
2018-11-07T01:01:54.017Z,84.47
2018-11-07T01:04:21.960Z,72.10
2018-11-07T01:06:56.834Z,85.03
2018-11-07T01:09:25.051Z,88.60
2018-11-07T01:11:53.045Z,74.70
2018-11-07T01:14:27.071Z,81.73
2018-11-07T01:16:55.640Z,80.73
2018-11-07T01:19:26.904Z,82.93
2018-11-07T01:21:54.859Z,86.30
2018-11-07T01:24:26.549Z,84.50
2018-11-07T01:27:01.874Z,87.20
2018-11-07T01:29:35.686Z,86.83
2018-11-07T01:32:06.516Z,80.03
2018-11-07T01:34:39.406Z,84.10
2018-11-07T01:37:08.055Z,88.13
2018-11-07T01:39:36.055Z,89.67
2018-11-07T01:42:05.027Z,86.23
2018-11-07T01:44:38.405Z,83.90
2018-11-07T01:47:09.034Z,90.20
2018-11-07T01:49:42.746Z,95.07
2018-11-07T01:52:15.909Z,85.90
2018-11-07T01:54:44.449Z,81.00
2018-11-07T01:57:13.443Z,87.00
2018-11-07T01:59:43.478Z,81.50
2018-11-07T02:02:11.452Z,84.80
2018-11-07T02:04:39.697Z,87.40
2018-11-07T02:07:08.088Z,85.70
2018-11-07T02:09:36.043Z,81.33
2018-11-07T02:12:04.911Z,82.73
2018-11-07T02:14:35.810Z,96.00
2018-11-07T02:17:03.875Z,91.10
2018-11-07T02:19:31.942Z,87.23
2018-11-07T02:21:59.920Z,84.67
2018-11-07T02:24:35.905Z,80.10
2018-11-07T02:27:09.748Z,84.10
2018-11-07T02:29:37.780Z,82.93
2018-11-07T02:32:05.712Z,86.33
2018-11-07T02:34:34.561Z,88.97
2018-11-07T02:37:06.340Z,104.40
2018-11-07T02:39:34.305Z,88.13
2018-11-07T02:42:02.311Z,79.03
2018-11-07T02:44:34.233Z,86.33
2018-11-07T02:47:02.712Z,100.77
2018-11-07T02:49:31.054Z,88.90
2018-11-07T02:51:59.582Z,100.83
2018-11-07T02:54:27.507Z,91.93
2018-11-07T02:56:55.469Z,90.57
2018-11-07T02:59:23.474Z,90.17
2018-11-07T03:01:51.355Z,87.57
2018-11-07T03:04:21.958Z,88.60
2018-11-07T03:06:53.313Z,99.20
2018-11-07T03:09:21.566Z,106.33
2018-11-07T03:11:54.320Z,91.93
2018-11-07T03:14:25.198Z,93.70
2018-11-07T03:16:53.565Z,84.77
2018-11-07T03:19:21.637Z,88.57
2018-11-07T03:21:49.847Z,92.00
2018-11-07T03:24:19.094Z,91.13
2018-11-07T03:26:46.993Z,95.47
2018-11-07T03:29:14.975Z,99.00
2018-11-07T03:31:42.914Z,97.33
2018-11-07T03:34:13.351Z,84.40
2018-11-07T03:36:48.401Z,89.73
2018-11-07T03:39:16.679Z,93.70
2018-11-07T03:41:44.549Z,101.67
2018-11-07T03:44:19.220Z,102.33
2018-11-07T03:46:48.435Z,92.00
2018-11-07T03:49:16.359Z,97.03
2018-11-07T03:51:44.640Z,100.80
2018-11-07T03:54:13.108Z,91.27
2018-11-07T03:56:40.972Z,94.40
2018-11-07T03:59:09.561Z,94.43
2018-11-07T04:01:37.524Z,91.00
2018-11-07T04:04:08.299Z,108.27
2018-11-07T04:06:36.367Z,96.17
2018-11-07T04:09:07.756Z,92.97
2018-11-07T04:11:35.957Z,93.43
2018-11-07T04:14:03.901Z,102.20
2018-11-07T04:16:31.877Z,92.10
2018-11-07T04:19:08.844Z,102.53
2018-11-07T04:21:37.177Z,96.40
2018-11-07T04:24:05.930Z,102.10
2018-11-07T04:26:35.643Z,95.60
2018-11-07T04:29:06.814Z,101.40
2018-11-07T04:31:34.838Z,93.10
2018-11-07T04:34:03.268Z,101.37
2018-11-07T04:36:31.246Z,97.43
2018-11-07T04:38:59.348Z,109.37
2018-11-07T04:41:27.867Z,94.83
2018-11-07T04:43:56.353Z,102.33
2018-11-07T04:46:24.227Z,101.23
2018-11-07T04:48:52.116Z,105.63
2018-11-07T04:51:19.984Z,94.30
2018-11-07T04:53:47.944Z,94.57
2018-11-07T04:56:15.853Z,95.90
2018-11-07T04:58:45.184Z,102.77
2018-11-07T05:01:13.140Z,101.27
2018-11-07T05:03:41.985Z,96.20
2018-11-07T05:06:09.870Z,103.97
2018-11-07T05:08:39.298Z,92.07
2018-11-07T05:11:07.198Z,105.87
2018-11-07T05:13:36.406Z,102.60
2018-11-07T05:16:04.523Z,98.70
2018-11-07T05:18:33.319Z,99.27
2018-11-07T05:21:03.193Z,103.37
2018-11-07T05:23:32.856Z,96.43
2018-11-07T05:26:01.043Z,103.47
2018-11-07T05:28:29.141Z,98.60
2018-11-07T05:30:57.073Z,102.27
2018-11-07T05:33:24.975Z,102.17
2018-11-07T05:35:52.908Z,100.80
2018-11-07T05:38:22.516Z,101.23
2018-11-07T05:40:50.779Z,100.27
2018-11-07T05:43:18.721Z,97.90
2018-11-07T05:45:46.704Z,103.87
2018-11-07T05:48:14.772Z,112.80
2018-11-07T05:50:42.664Z,98.03
2018-11-07T05:53:11.685Z,103.13
2018-11-07T05:55:39.755Z,95.07
2018-11-07T05:58:07.659Z,111.03
2018-11-07T06:00:35.643Z,110.80
2018-11-07T06:03:03.607Z,105.00
2018-11-07T06:05:32.438Z,99.43
2018-11-07T06:08:00.541Z,96.83
2018-11-07T06:10:41.951Z,96.23
2018-11-07T06:13:10.541Z,112.00
2018-11-07T06:15:39.074Z,115.60
2018-11-07T06:18:07.868Z,119.13
2018-11-07T06:20:42.325Z,109.47
2018-11-07T06:23:11.766Z,112.03
2018-11-07T06:25:43.013Z,120.63
2018-11-07T06:28:21.818Z,108.43
2018-11-07T06:30:50.998Z,112.77
2018-11-07T06:33:19.367Z,106.80
2018-11-07T06:35:51.969Z,116.47
2018-11-07T06:38:20.466Z,105.30
2018-11-07T06:40:50.022Z,127.47
2018-11-07T06:43:18.159Z,107.43
2018-11-07T06:45:46.987Z,109.90
2018-11-07T06:48:15.009Z,117.30
2018-11-07T06:50:49.237Z,120.53
2018-11-07T06:53:17.175Z,108.40
2018-11-07T06:55:48.454Z,124.37
2018-11-07T06:58:16.820Z,104.20
2018-11-07T07:00:44.775Z,114.50
2018-11-07T07:03:12.908Z,113.70
2018-11-07T07:05:40.844Z,114.33
2018-11-07T07:08:08.767Z,138.03
2018-11-07T07:10:36.873Z,122.60
2018-11-07T07:13:06.661Z,127.00
2018-11-07T07:15:34.887Z,125.43
2018-11-07T07:18:02.942Z,119.47
2018-11-07T07:20:30.830Z,135.20
2018-11-07T07:23:05.968Z,115.57
2018-11-07T07:25:34.045Z,123.87
2018-11-07T07:28:03.549Z,116.93
2018-11-07T07:30:31.756Z,130.70
2018-11-07T07:32:59.741Z,134.83
2018-11-07T07:35:33.541Z,128.07
2018-11-07T07:38:01.709Z,137.43
2018-11-07T07:40:30.477Z,124.40
2018-11-07T07:42:59.064Z,128.67
2018-11-07T07:45:30.252Z,124.70
2018-11-07T07:48:05.525Z,124.47
2018-11-07T07:50:34.446Z,132.90
2018-11-07T07:53:03.707Z,132.27
2018-11-07T07:55:35.403Z,119.97
2018-11-07T07:58:04.393Z,133.37
2018-11-07T08:00:36.143Z,128.50
2018-11-07T08:03:04.525Z,128.00
2018-11-07T08:05:32.499Z,143.33
2018-11-07T08:08:00.976Z,141.57
2018-11-07T08:10:29.399Z,140.70
2018-11-07T08:12:57.366Z,158.80
2018-11-07T08:15:25.360Z,137.70
2018-11-07T08:17:53.253Z,131.83
2018-11-07T08:20:21.226Z,152.50
2018-11-07T08:22:50.420Z,150.07
2018-11-07T08:25:18.404Z,145.60
2018-11-07T08:27:48.085Z,143.27
2018-11-07T08:30:21.176Z,146.73
2018-11-07T08:32:58.519Z,161.63
2018-11-07T08:35:32.504Z,149.20
2018-11-07T08:38:01.769Z,149.67
2018-11-07T08:40:37.752Z,155.77
2018-11-07T08:43:08.287Z,151.47
2018-11-07T08:45:42.438Z,157.20
2018-11-07T08:48:10.555Z,155.13
2018-11-07T08:50:42.417Z,150.07
2018-11-07T08:53:10.953Z,166.17
2018-11-07T08:55:46.154Z,177.37
2018-11-07T08:58:14.083Z,183.73
2018-11-07T09:00:47.604Z,163.23
2018-11-07T09:03:16.857Z,159.23
2018-11-07T09:05:45.011Z,168.50
2018-11-07T09:08:13.152Z,172.30
2018-11-07T09:10:41.140Z,169.40
2018-11-07T09:13:10.609Z,151.63
2018-11-07T09:15:38.982Z,152.93
2018-11-07T09:18:10.588Z,143.50
2018-11-07T09:20:47.749Z,170.03
2018-11-07T09:23:17.090Z,145.93
2018-11-07T09:25:56.465Z,158.60
2018-11-07T09:28:24.756Z,153.60
2018-11-07T09:30:52.728Z,172.53
2018-11-07T09:33:22.882Z,164.97
2018-11-07T09:35:51.103Z,171.17
2018-11-07T09:38:20.125Z,162.77
2018-11-07T09:40:52.316Z,181.40
2018-11-07T09:43:23.058Z,169.00
2018-11-07T09:45:52.193Z,150.33
2018-11-07T09:48:22.217Z,170.83
2018-11-07T09:50:53.417Z,163.63
2018-11-07T09:53:23.535Z,165.27
2018-11-07T09:55:53.193Z,155.23
2018-11-07T09:58:21.237Z,145.00
2018-11-07T10:00:51.812Z,144.10
2018-11-07T10:03:25.032Z,163.20
2018-11-07T10:05:53.565Z,159.20
2018-11-07T10:08:21.601Z,153.70
2018-11-07T10:10:51.345Z,147.23
2018-11-07T10:16:01.349Z,158.70
2018-11-07T10:18:30.198Z,134.57
2018-11-07T10:21:02.046Z,150.20
2018-11-07T10:23:31.372Z,172.10
2018-11-07T10:25:59.977Z,143.50
2018-11-07T10:28:31.008Z,163.77
2018-11-07T10:30:59.893Z,148.70
2018-11-07T10:33:28.182Z,150.20
2018-11-07T10:36:04.741Z,134.47
2018-11-07T10:38:33.514Z,147.43
2018-11-07T10:41:04.515Z,141.80
2018-11-07T10:43:38.360Z,141.70
2018-11-07T10:46:07.149Z,132.03
2018-11-07T10:48:35.446Z,155.60
2018-11-07T10:51:07.217Z,140.73
2018-11-07T10:53:35.990Z,135.50
2018-11-07T10:56:09.678Z,148.40
2018-11-07T10:58:38.727Z,143.73
2018-11-07T11:02:15.367Z,139.27
2018-11-07T11:07:25.681Z,133.07
2018-11-07T11:09:54.114Z,145.07
2018-11-07T11:12:23.162Z,136.73
2018-11-07T11:14:59.543Z,134.57
2018-11-07T11:17:31.812Z,131.00
2018-11-07T11:20:01.164Z,136.60
2018-11-07T11:22:29.878Z,129.90
2018-11-07T11:25:06.172Z,130.73
2018-11-07T11:27:34.774Z,140.53
2018-11-07T11:32:58.064Z,132.93
2018-11-07T11:35:27.041Z,118.30
2018-11-07T11:38:01.089Z,123.70
2018-11-07T11:40:35.928Z,133.87
2018-11-07T11:43:14.742Z,132.53
2018-11-07T11:45:49.259Z,128.17
2018-11-07T11:48:20.643Z,131.50
2018-11-07T11:50:56.258Z,127.40
2018-11-07T11:53:29.882Z,116.67
2018-11-07T11:56:11.369Z,123.17
2018-11-07T11:58:41.902Z,127.73
2018-11-07T12:01:13.758Z,125.67
2018-11-07T12:03:42.137Z,117.93
2018-11-07T12:06:10.978Z,116.13
2018-11-07T12:08:39.235Z,116.70
2018-11-07T12:11:09.022Z,116.00
2018-11-07T12:13:37.646Z,121.10
2018-11-07T12:16:06.902Z,125.50
2018-11-07T12:18:35.697Z,123.60
2018-11-07T12:21:09.661Z,113.57
2018-11-07T12:23:41.947Z,110.93
2018-11-07T12:26:10.046Z,115.60
2018-11-07T12:28:38.579Z,106.80
2018-11-07T12:31:08.150Z,114.03
2018-11-07T12:33:38.342Z,119.97
2018-11-07T12:36:06.563Z,117.10
2018-11-07T12:38:35.991Z,110.07
2018-11-07T12:41:05.453Z,105.50
2018-11-07T12:43:35.008Z,100.20
2018-11-07T12:46:05.918Z,99.23
2018-11-07T12:48:36.527Z,101.23
2018-11-07T12:51:07.061Z,115.00
2018-11-07T12:53:35.941Z,104.30
2018-11-07T12:56:05.690Z,106.40
2018-11-07T12:58:36.692Z,100.53
2018-11-07T13:01:07.427Z,101.57
2018-11-07T13:03:35.517Z,106.23
2018-11-07T13:06:05.391Z,105.23
2018-11-07T13:08:35.727Z,96.53
2018-11-07T13:11:05.185Z,99.73
2018-11-07T13:13:33.445Z,94.27
2018-11-07T13:16:03.843Z,107.17
2018-11-07T13:18:36.697Z,99.30
2018-11-07T13:21:06.073Z,97.07
2018-11-07T13:23:34.160Z,98.97
2018-11-07T13:26:03.029Z,101.60
2018-11-07T13:28:32.017Z,100.60
2018-11-07T13:31:00.731Z,95.90
2018-11-07T13:33:29.645Z,93.17
2018-11-07T13:38:34.877Z,88.80
2018-11-07T13:41:04.264Z,110.27
2018-11-07T13:43:34.524Z,86.57
2018-11-07T13:46:04.398Z,90.33
2018-11-07T13:48:35.282Z,93.00
2018-11-07T13:51:04.973Z,84.37
2018-11-07T13:53:34.281Z,85.03
2018-11-07T13:56:02.716Z,83.33
2018-11-07T13:58:30.805Z,94.23
2018-11-07T14:00:59.882Z,93.70
2018-11-07T14:03:28.724Z,89.40
2018-11-07T14:05:57.745Z,104.83
2018-11-07T14:08:26.800Z,88.97
2018-11-07T14:10:56.478Z,91.33
2018-11-07T14:13:26.094Z,88.90
2018-11-07T14:15:56.563Z,94.60
2018-11-07T14:18:25.434Z,94.63
2018-11-07T14:20:53.517Z,82.87
2018-11-07T14:23:21.720Z,94.27
2018-11-07T14:25:50.523Z,93.20
2018-11-07T14:28:20.335Z,85.23
2018-11-07T14:30:55.618Z,90.17
2018-11-07T14:33:25.670Z,81.37
2018-11-07T14:35:53.850Z,87.03
2018-11-07T14:38:21.872Z,87.73
2018-11-07T14:40:50.607Z,96.00
2018-11-07T14:43:18.949Z,87.47
2018-11-07T14:45:54.629Z,89.70
2018-11-07T14:48:22.609Z,90.87
2018-11-07T14:50:50.760Z,85.03
2018-11-07T14:53:19.294Z,80.93
2018-11-07T14:55:48.450Z,89.67
2018-11-07T14:58:20.192Z,87.00
2018-11-07T15:00:56.773Z,76.90
2018-11-07T15:03:24.949Z,75.03
2018-11-07T15:05:54.698Z,86.87
2018-11-07T15:08:23.340Z,77.90
2018-11-07T15:10:51.815Z,81.83
2018-11-07T15:13:20.406Z,89.57
2018-11-07T15:15:49.507Z,87.87
2018-11-07T15:18:18.453Z,75.33
2018-11-07T15:20:47.324Z,88.80
2018-11-07T15:23:16.023Z,83.10
2018-11-07T15:25:46.908Z,70.33
2018-11-07T15:28:16.731Z,87.70
2018-11-07T15:30:44.670Z,94.63
2018-11-07T15:33:13.172Z,72.57
2018-11-07T15:35:41.287Z,89.53
2018-11-07T15:38:09.476Z,75.50
2018-11-07T15:40:38.031Z,79.97
2018-11-07T15:43:06.748Z,85.67
2018-11-07T15:45:38.236Z,87.17
2018-11-07T15:48:08.750Z,91.07
2018-11-07T15:50:43.174Z,82.50
2018-11-07T15:53:11.996Z,75.87
2018-11-07T15:55:41.199Z,99.23
2018-11-07T15:58:10.126Z,76.10
2018-11-07T16:00:38.552Z,84.60
2018-11-07T16:03:08.873Z,87.47
2018-11-07T16:05:37.562Z,79.97
2018-11-07T16:08:07.104Z,77.87
2018-11-07T16:10:37.356Z,109.10
2018-11-07T16:13:08.092Z,82.70
2018-11-07T16:15:44.956Z,72.37
2018-11-07T16:18:19.301Z,83.90
2018-11-07T16:20:47.756Z,81.70
2018-11-07T16:23:17.346Z,88.07
2018-11-07T16:25:45.948Z,78.07
2018-11-07T16:28:15.496Z,97.47
2018-11-07T16:30:57.099Z,82.80
2018-11-07T16:33:25.477Z,88.03
2018-11-07T16:35:55.580Z,96.43
2018-11-07T16:38:24.555Z,85.93
2018-11-07T16:40:53.174Z,80.67
2018-11-07T16:43:21.997Z,95.33
2018-11-07T16:45:50.960Z,87.17
2018-11-07T16:48:21.836Z,87.50
2018-11-07T16:50:50.786Z,85.13
2018-11-07T16:53:19.904Z,88.20
2018-11-07T16:55:48.467Z,92.23
2018-11-07T16:58:18.112Z,85.17
2018-11-07T17:01:00.777Z,100.80
2018-11-07T17:03:36.118Z,93.03
2018-11-07T17:06:06.842Z,86.97
2018-11-07T17:08:35.744Z,93.73
2018-11-07T17:11:08.005Z,80.67
2018-11-07T17:13:43.204Z,105.40
2018-11-07T17:16:11.336Z,92.47
2018-11-07T17:18:41.666Z,94.80
2018-11-07T17:21:10.177Z,99.93
2018-11-07T17:23:44.394Z,87.47
2018-11-07T17:26:12.822Z,88.73
2018-11-07T17:28:42.495Z,90.33
2018-11-07T17:31:10.716Z,92.13
2018-11-07T17:33:41.956Z,85.23
2018-11-07T17:36:12.599Z,90.73
2018-11-07T17:38:42.856Z,90.73
2018-11-07T17:41:15.796Z,94.33
2018-11-07T17:43:46.509Z,98.67
2018-11-07T17:46:24.704Z,90.90
2018-11-07T17:48:56.748Z,107.03
2018-11-07T17:51:26.282Z,91.57
2018-11-07T17:53:56.436Z,109.97
2018-11-07T17:56:24.871Z,98.70
2018-11-07T17:58:52.805Z,92.30
2018-11-07T18:01:21.031Z,99.67
2018-11-07T18:03:49.584Z,99.23
2018-11-07T18:06:25.275Z,102.90
2018-11-07T18:09:07.940Z,103.97
2018-11-07T18:11:36.158Z,111.83
2018-11-07T18:14:05.916Z,110.23
2018-11-07T18:16:33.878Z,92.33
2018-11-07T18:19:04.157Z,97.17
2018-11-07T18:21:36.941Z,103.17
2018-11-07T18:24:11.156Z,99.00
2018-11-07T18:26:43.842Z,99.37
2018-11-07T18:29:14.896Z,115.07
2018-11-07T18:31:48.260Z,94.40
2018-11-07T18:34:16.717Z,106.87
2018-11-07T18:36:55.925Z,101.77
2018-11-07T18:39:25.391Z,93.57
2018-11-07T18:41:53.576Z,108.70
2018-11-07T18:44:22.193Z,95.67
2018-11-07T18:46:51.718Z,95.57
2018-11-07T18:49:22.807Z,99.80
2018-11-07T18:51:58.923Z,91.43
2018-11-07T18:54:39.199Z,92.90
2018-11-07T18:57:22.165Z,93.40
2018-11-07T18:59:52.260Z,112.17
2018-11-07T19:02:24.631Z,93.23
2018-11-07T19:07:35.791Z,91.37
2018-11-07T19:10:06.863Z,94.83
2018-11-07T19:12:44.078Z,97.27
2018-11-07T19:18:15.471Z,99.43
2018-11-07T19:20:54.320Z,97.80
2018-11-07T19:23:25.632Z,100.40
2018-11-07T19:25:58.679Z,103.17
2018-11-07T19:28:34.732Z,88.27
2018-11-07T19:31:06.517Z,91.83
2018-11-07T19:33:39.097Z,96.20
2018-11-07T19:36:11.420Z,101.60
2018-11-07T19:38:49.066Z,106.80
2018-11-07T19:41:26.665Z,97.73
2018-11-07T19:43:54.608Z,97.23
2018-11-07T19:46:35.190Z,99.40
2018-11-07T19:54:29.009Z,99.30
2018-11-07T19:59:38.599Z,101.57
2018-11-07T20:02:17.793Z,98.50
2018-11-07T20:04:50.951Z,107.83
2018-11-07T20:07:23.978Z,97.80
2018-11-07T20:09:56.069Z,96.03
2018-11-07T20:12:37.910Z,102.60
2018-11-07T20:15:07.236Z,100.30
2018-11-07T20:17:35.829Z,102.57
2018-11-07T20:20:06.343Z,93.23
2018-11-07T20:22:41.247Z,94.00
2018-11-07T20:25:11.393Z,96.23
2018-11-07T20:27:53.414Z,96.77
2018-11-07T20:30:22.784Z,106.33
2018-11-07T20:32:59.616Z,98.13
2018-11-07T20:35:37.113Z,95.90
2018-11-07T20:38:06.459Z,102.00
2018-11-07T20:40:35.331Z,90.90
2018-11-07T20:43:06.685Z,90.80
2018-11-07T20:45:51.807Z,93.50
2018-11-07T20:48:21.226Z,87.20
2018-11-07T20:50:50.100Z,100.87
2018-11-07T20:56:07.217Z,92.57
2018-11-07T21:01:10.870Z,98.10
2018-11-07T21:03:39.153Z,95.83
2018-11-07T21:06:10.730Z,98.57
2018-11-07T21:08:44.415Z,103.87
2018-11-07T21:11:14.753Z,93.83
2018-11-07T21:13:45.121Z,101.57
2018-11-07T21:16:13.076Z,91.10
2018-11-07T21:18:47.601Z,96.37
2018-11-07T21:21:18.146Z,86.63
2018-11-07T21:23:47.383Z,91.73
2018-11-07T21:26:18.206Z,81.43
2018-11-07T21:28:46.876Z,87.30
2018-11-07T21:34:08.781Z,100.00
2018-11-07T21:36:45.360Z,100.00
2018-11-07T21:39:15.894Z,92.73
2018-11-07T21:41:52.550Z,97.27
2018-11-07T21:44:25.226Z,90.00
2018-11-07T21:46:54.238Z,94.07
2018-11-07T21:49:22.525Z,81.53
2018-11-07T21:51:51.059Z,89.60
2018-11-07T21:54:20.281Z,94.60
2018-11-07T21:56:50.165Z,88.73
2018-11-07T21:59:18.566Z,89.23
2018-11-07T22:01:59.258Z,102.87
2018-11-07T22:04:30.724Z,84.77
2018-11-07T22:07:03.583Z,93.03
2018-11-07T22:09:31.737Z,94.17
2018-11-07T22:14:36.385Z,97.43
2018-11-07T22:17:04.383Z,95.13
2018-11-07T22:19:32.895Z,104.20
2018-11-07T22:22:02.754Z,101.13
2018-11-07T22:24:33.377Z,97.43
2018-11-07T22:27:07.214Z,108.23
2018-11-07T22:29:36.702Z,117.30
2018-11-07T22:32:05.102Z,111.90
2018-11-07T22:34:34.299Z,93.03
2018-11-07T22:37:02.359Z,123.70
2018-11-07T22:39:30.250Z,116.23
2018-11-07T22:41:58.458Z,118.20
2018-11-07T22:44:26.391Z,114.97
2018-11-07T22:46:56.981Z,109.83
2018-11-07T22:49:29.188Z,118.00
2018-11-07T22:51:57.942Z,116.53
2018-11-07T22:54:26.643Z,120.00
2018-11-07T22:56:54.640Z,124.03
2018-11-07T22:59:22.836Z,130.23
2018-11-07T23:01:50.880Z,138.77
2018-11-07T23:04:18.786Z,127.67
2018-11-07T23:06:46.850Z,117.23
2018-11-07T23:09:15.855Z,127.70
2018-11-07T23:11:44.524Z,126.17
2018-11-07T23:14:13.674Z,136.10
2018-11-07T23:16:44.136Z,124.73
2018-11-07T23:19:15.555Z,133.60
2018-11-07T23:21:43.773Z,131.93
2018-11-07T23:24:11.936Z,148.83
2018-11-07T23:26:40.149Z,133.83
2018-11-07T23:29:08.097Z,135.73
2018-11-07T23:31:37.380Z,133.53
2018-11-07T23:34:06.901Z,141.53
2018-11-07T23:36:35.139Z,160.60
2018-11-07T23:39:05.659Z,146.90
2018-11-07T23:41:33.583Z,169.47
2018-11-07T23:44:01.629Z,146.43
2018-11-07T23:46:29.815Z,148.47
2018-11-07T23:48:58.563Z,144.27
2018-11-07T23:51:26.806Z,142.53
2018-11-07T23:53:54.979Z,149.57
2018-11-07T23:56:22.866Z,142.80
2018-11-07T23:58:50.849Z,147.30
